Time;durP1;ratioP1;P1;durP2;ratioP2;P2;SDS_P1;SDS_P2;PMS_P1;PMS_P2;Temp;Humidity;BMP_temperature;BMP_pressure;BME280_temperature;BME280_humidity;BME280_pressure;Samples;Min_cycle;Max_cycle;Signal;HPM_P1;HPM_P2
2021/04/08 00:01:03;;;;;;;19.90;4.13;;;;;;;;;;5013011;28;20053;-60
2021/04/08 00:03:28;;;;;;;20.65;5.03;;;;;;;;;;5014206;28;20153;-61
2021/04/08 00:05:53;;;;;;;15.97;3.50;;;;;;;;;;5013310;28;20042;-61
2021/04/08 00:08:19;;;;;;;12.93;4.07;;;;;;;;;;5014047;28;20025;-61
2021/04/08 00:10:44;;;;;;;15.27;3.33;;;;;;;;;;5013869;28;20038;-59
2021/04/08 00:13:09;;;;;;;13.50;2.37;;;;;;;;;;5013499;28;20510;-60
2021/04/08 00:15:35;;;;;;;16.70;2.67;;;;;;;;;;5013944;28;20025;-59
2021/04/08 00:18:00;;;;;;;15.40;4.30;;;;;;;;;;5013012;28;20548;-59
2021/04/08 00:20:25;;;;;;;15.77;3.47;;;;;;;;;;5029006;28;20482;-60
2021/04/08 00:22:51;;;;;;;24.80;4.73;;;;;;;;;;5013163;28;20112;-58
2021/04/08 00:25:16;;;;;;;19.20;5.70;;;;;;;;;;5013722;28;20026;-60
2021/04/08 00:27:42;;;;;;;12.73;4.00;;;;;;;;;;5014572;28;20112;-60
2021/04/08 00:30:08;;;;;;;19.92;4.88;;;;;;;;;;5022494;28;20470;-59
2021/04/08 00:32:33;;;;;;;15.65;3.38;;;;;;;;;;5021433;28;20022;-60
2021/04/08 00:34:58;;;;;;;21.87;4.33;;;;;;;;;;5021368;28;20029;-61
2021/04/08 00:37:24;;;;;;;26.73;5.73;;;;;;;;;;5023119;28;20053;-60
2021/04/08 00:39:49;;;;;;;26.47;6.13;;;;;;;;;;5014321;28;20050;-59
2021/04/08 00:42:15;;;;;;;28.70;7.17;;;;;;;;;;5013108;28;20438;-59
2021/04/08 00:44:40;;;;;;;23.57;5.93;;;;;;;;;;5011780;28;20465;-60
2021/04/08 00:47:05;;;;;;;19.43;6.40;;;;;;;;;;5011402;28;20034;-60
2021/04/08 00:49:31;;;;;;;18.43;5.13;;;;;;;;;;5013290;28;20038;-61
2021/04/08 00:51:57;;;;;;;15.95;3.10;;;;;;;;;;5012562;28;20014;-59
2021/04/08 00:54:22;;;;;;;13.37;3.30;;;;;;;;;;5012152;28;20362;-59
2021/04/08 00:56:47;;;;;;;11.13;2.30;;;;;;;;;;5013303;28;20454;-59
2021/04/08 00:59:13;;;;;;;10.63;1.73;;;;;;;;;;5012587;28;20517;-59
2021/04/08 01:01:38;;;;;;;11.98;1.60;;;;;;;;;;5011440;28;20058;-60
2021/04/08 01:04:04;;;;;;;5.87;1.77;;;;;;;;;;5012507;28;20163;-59
2021/04/08 01:06:30;;;;;;;7.90;1.87;;;;;;;;;;5027749;28;20390;-59
2021/04/08 01:08:55;;;;;;;9.95;1.33;;;;;;;;;;5012453;28;20561;-58
2021/04/08 01:11:20;;;;;;;9.73;1.77;;;;;;;;;;5028274;28;20109;-61
2021/04/08 01:13:46;;;;;;;11.93;1.50;;;;;;;;;;5011580;28;20431;-59
2021/04/08 01:16:14;;;;;;;5.47;1.40;;;;;;;;;;5012188;28;20030;-59
2021/04/08 01:18:51;;;;;;;7.50;1.85;;;;;;;;;;5012723;28;20129;-59
2021/04/08 01:21:21;;;;;;;6.75;1.35;;;;;;;;;;5012205;28;20731;-59
2021/04/08 01:23:59;;;;;;;6.40;1.40;;;;;;;;;;5012819;28;20058;-60
2021/04/08 01:26:24;;;;;;;;;;;;;;;;;;5013039;28;20026;-59
2021/04/08 01:29:09;;;;;;;7.57;1.27;;;;;;;;;;5012253;28;20261;-59
2021/04/08 01:31:36;;;;;;;10.02;1.75;;;;;;;;;;5011492;28;20421;-59
2021/04/08 01:34:04;;;;;;;4.28;1.33;;;;;;;;;;5010704;28;20022;-59
2021/04/08 01:36:31;;;;;;;10.88;2.60;;;;;;;;;;5012423;28;20029;-59
2021/04/08 01:38:58;;;;;;;12.77;2.90;;;;;;;;;;5012001;28;20042;-59
2021/04/08 01:41:24;;;;;;;21.45;3.03;;;;;;;;;;5011135;28;20040;-59
2021/04/08 01:43:50;;;;;;;15.23;2.90;;;;;;;;;;5012432;28;20037;-60
2021/04/08 01:46:17;;;;;;;10.52;3.28;;;;;;;;;;5011787;28;20235;-60
2021/04/08 01:48:45;;;;;;;15.30;4.72;;;;;;;;;;5012352;28;20046;-59
2021/04/08 01:51:10;;;;;;;20.73;5.38;;;;;;;;;;5011697;28;20022;-58
2021/04/08 01:53:38;;;;;;;21.67;5.18;;;;;;;;;;5011876;28;20363;-59
2021/04/08 01:56:04;;;;;;;33.97;5.32;;;;;;;;;;5011336;28;20037;-60
2021/04/08 01:58:29;;;;;;;20.33;4.85;;;;;;;;;;5012031;28;20414;-60
2021/04/08 02:00:55;;;;;;;16.23;4.77;;;;;;;;;;5012008;28;20050;-60
2021/04/08 02:03:21;;;;;;;14.32;2.50;;;;;;;;;;5011482;28;20072;-61
2021/04/08 02:05:47;;;;;;;9.68;2.95;;;;;;;;;;5012413;28;20026;-61
2021/04/08 02:08:13;;;;;;;13.30;2.83;;;;;;;;;;5010231;28;20034;-60
2021/04/08 02:10:39;;;;;;;9.55;1.75;;;;;;;;;;5012264;28;20030;-60
2021/04/08 02:13:05;;;;;;;15.15;2.70;;;;;;;;;;5011531;28;20079;-58
2021/04/08 02:15:31;;;;;;;14.13;2.72;;;;;;;;;;5012113;28;20034;-60
2021/04/08 02:18:00;;;;;;;14.18;2.85;;;;;;;;;;5011221;28;20041;-60
2021/04/08 02:20:32;;;;;;;11.57;2.40;;;;;;;;;;5009905;28;20050;-60
2021/04/08 02:22:59;;;;;;;14.80;3.90;;;;;;;;;;5011805;28;20324;-60
2021/04/08 02:25:26;;;;;;;16.02;4.22;;;;;;;;;;5011064;28;20034;-60
2021/04/08 02:27:51;;;;;;;;;;;;;;;;;;5012278;28;20375;-59
2021/04/08 02:30:17;;;;;;;13.70;3.67;;;;;;;;;;5011243;28;19916;-60
2021/04/08 02:32:44;;;;;;;15.13;3.38;;;;;;;;;;5011607;28;20053;-61
2021/04/08 02:35:13;;;;;;;11.02;1.73;;;;;;;;;;5011047;28;20045;-60
2021/04/08 02:37:39;;;;;;;13.18;2.03;;;;;;;;;;5010476;28;20037;-60
2021/04/08 02:40:07;;;;;;;6.22;1.10;;;;;;;;;;5010907;28;20034;-59
2021/04/08 02:42:32;;;;;;;9.23;2.08;;;;;;;;;;5012646;28;20057;-61
2021/04/08 02:44:57;;;;;;;6.33;1.20;;;;;;;;;;5011268;28;20030;-60
2021/04/08 02:47:23;;;;;;;5.87;1.17;;;;;;;;;;5011250;28;20116;-61
2021/04/08 02:49:48;;;;;;;3.40;1.13;;;;;;;;;;5010558;28;20427;-61
2021/04/08 02:52:16;;;;;;;11.50;2.90;;;;;;;;;;5009816;28;20076;-59
2021/04/08 02:54:45;;;;;;;2.42;0.95;;;;;;;;;;5011372;28;20260;-59
2021/04/08 02:57:14;;;;;;;11.73;1.85;;;;;;;;;;5010850;28;20037;-59
2021/04/08 02:59:53;;;;;;;8.15;1.67;;;;;;;;;;5011772;28;20524;-60
2021/04/08 03:02:20;;;;;;;9.05;1.80;;;;;;;;;;5010846;28;20046;-59
2021/04/08 03:04:47;;;;;;;6.45;1.77;;;;;;;;;;5026529;28;20093;-59
2021/04/08 03:07:13;;;;;;;12.05;2.97;;;;;;;;;;5009475;28;20034;-60
2021/04/08 03:09:39;;;;;;;6.57;1.02;;;;;;;;;;5011512;28;20478;-61
2021/04/08 03:12:09;;;;;;;9.18;1.92;;;;;;;;;;5011524;28;20030;-60
2021/04/08 03:14:39;;;;;;;8.63;1.83;;;;;;;;;;5010337;28;20041;-59
2021/04/08 03:17:05;;;;;;;7.97;1.40;;;;;;;;;;5011503;28;20103;-59
2021/04/08 03:19:32;;;;;;;5.53;1.70;;;;;;;;;;5010789;28;20044;-60
2021/04/08 03:21:58;;;;;;;5.13;1.88;;;;;;;;;;5026578;28;20026;-59
2021/04/08 03:24:24;;;;;;;9.82;2.55;;;;;;;;;;5010776;28;20030;-61
2021/04/08 03:26:50;;;;;;;8.95;2.53;;;;;;;;;;5011507;28;20026;-60
2021/04/08 03:29:15;;;;;;;9.90;2.07;;;;;;;;;;5011002;28;20029;-61
2021/04/08 03:31:44;;;;;;;12.53;1.70;;;;;;;;;;5014912;28;20036;-60
2021/04/08 03:34:10;;;;;;;11.40;2.33;;;;;;;;;;5013630;28;20030;-60
2021/04/08 03:36:37;;;;;;;10.30;1.30;;;;;;;;;;5015125;28;20121;-60
2021/04/08 03:39:03;;;;;;;7.38;2.17;;;;;;;;;;5014796;28;20038;-60
2021/04/08 03:41:29;;;;;;;6.05;1.60;;;;;;;;;;5014087;28;20025;-60
2021/04/08 03:43:54;;;;;;;11.13;2.30;;;;;;;;;;5014544;28;20080;-59
2021/04/08 03:46:19;;;;;;;6.87;1.77;;;;;;;;;;5014347;28;20034;-60
2021/04/08 03:48:47;;;;;;;7.23;2.10;;;;;;;;;;5029916;28;20115;-60
2021/04/08 03:51:12;;;;;;;11.70;1.90;;;;;;;;;;5014284;28;20048;-59
2021/04/08 03:53:38;;;;;;;7.88;2.08;;;;;;;;;;5014723;28;20038;-60
2021/04/08 03:56:04;;;;;;;7.50;2.60;;;;;;;;;;5014766;28;20042;-61
2021/04/08 03:58:29;;;;;;;13.23;2.70;;;;;;;;;;5013539;28;20076;-59
2021/04/08 04:00:58;;;;;;;9.83;2.00;;;;;;;;;;5013204;28;20449;-60
2021/04/08 04:03:23;;;;;;;9.30;2.92;;;;;;;;;;5029057;28;20038;-60
2021/04/08 04:05:49;;;;;;;8.40;2.40;;;;;;;;;;4996705;28;20100;-59
2021/04/08 04:08:15;;;;;;;8.83;2.07;;;;;;;;;;5015017;28;20050;-58
2021/04/08 04:10:40;;;;;;;9.77;3.20;;;;;;;;;;5014591;28;20034;-61
2021/04/08 04:13:07;;;;;;;8.48;2.05;;;;;;;;;;5014412;28;20109;-62
2021/04/08 04:15:33;;;;;;;7.23;1.80;;;;;;;;;;5028659;28;20363;-60
2021/04/08 04:18:02;;;;;;;12.23;3.08;;;;;;;;;;5013835;28;20026;-61
2021/04/08 04:20:27;;;;;;;7.43;2.90;;;;;;;;;;5013263;28;20065;-61
2021/04/08 04:22:53;;;;;;;7.80;2.70;;;;;;;;;;5029231;28;20077;-61
2021/04/08 04:25:18;;;;;;;9.83;2.63;;;;;;;;;;5028756;28;20416;-61
2021/04/08 04:27:43;;;;;;;9.20;2.20;;;;;;;;;;5014171;28;20489;-60
2021/04/08 04:30:09;;;;;;;8.43;2.43;;;;;;;;;;5013812;28;20026;-60
2021/04/08 04:32:35;;;;;;;7.50;2.53;;;;;;;;;;5011923;28;20034;-60
2021/04/08 04:35:01;;;;;;;6.43;2.77;;;;;;;;;;5013795;28;20076;-60
2021/04/08 04:37:26;;;;;;;8.02;3.08;;;;;;;;;;5013225;28;20061;-60
2021/04/08 04:39:51;;;;;;;7.63;2.93;;;;;;;;;;5013631;28;20064;-61
2021/04/08 04:42:17;;;;;;;9.57;3.30;;;;;;;;;;5012560;28;20034;-60
2021/04/08 04:44:42;;;;;;;10.30;4.07;;;;;;;;;;5013384;28;20037;-60
2021/04/08 04:47:08;;;;;;;17.07;3.67;;;;;;;;;;5013557;28;20466;-60
2021/04/08 04:49:33;;;;;;;12.07;4.97;;;;;;;;;;5011474;28;20056;-60
2021/04/08 04:51:59;;;;;;;12.03;4.27;;;;;;;;;;5028777;28;20161;-61
2021/04/08 04:54:24;;;;;;;9.17;4.07;;;;;;;;;;5012864;28;20041;-60
2021/04/08 04:56:49;;;;;;;7.07;3.80;;;;;;;;;;5013187;28;20033;-60
2021/04/08 04:59:15;;;;;;;14.03;5.13;;;;;;;;;;5013325;28;20068;-61
2021/04/08 05:01:40;;;;;;;14.30;5.13;;;;;;;;;;5011130;28;20406;-60
2021/04/08 05:04:06;;;;;;;18.33;5.03;;;;;;;;;;5012148;28;20271;-60
2021/04/08 05:06:31;;;;;;;13.63;4.63;;;;;;;;;;5027703;28;20436;-60
2021/04/08 05:08:56;;;;;;;18.80;5.73;;;;;;;;;;5011765;28;20484;-60
2021/04/08 05:11:22;;;;;;;18.27;5.07;;;;;;;;;;5012943;28;20124;-59
2021/04/08 05:13:48;;;;;;;13.13;4.40;;;;;;;;;;5013705;28;20026;-60
2021/04/08 05:16:14;;;;;;;7.80;3.83;;;;;;;;;;5018696;28;20017;-61
2021/04/08 05:18:39;;;;;;;12.73;4.27;;;;;;;;;;5014533;28;20046;-62
2021/04/08 05:21:04;;;;;;;10.37;4.50;;;;;;;;;;5012432;28;20038;-60
2021/04/08 05:23:30;;;;;;;16.20;4.17;;;;;;;;;;5027663;28;20482;-59
2021/04/08 05:25:55;;;;;;;13.60;5.90;;;;;;;;;;5028427;28;20033;-61
2021/04/08 05:28:21;;;;;;;16.30;3.67;;;;;;;;;;5027967;28;20060;-59
2021/04/08 05:30:46;;;;;;;9.27;3.80;;;;;;;;;;5014039;28;20481;-61
2021/04/08 05:33:11;;;;;;;10.87;4.40;;;;;;;;;;5015235;28;20081;-60
2021/04/08 05:35:37;;;;;;;12.30;3.47;;;;;;;;;;5013575;28;20037;-61
2021/04/08 05:38:02;;;;;;;16.90;4.40;;;;;;;;;;5012891;28;20121;-59
2021/04/08 05:40:28;;;;;;;13.32;4.10;;;;;;;;;;5012063;28;20038;-60
2021/04/08 05:42:54;;;;;;;7.63;3.87;;;;;;;;;;5028038;28;20443;-61
2021/04/08 05:45:20;;;;;;;12.50;3.50;;;;;;;;;;5012919;28;20091;-60
2021/04/08 05:47:46;;;;;;;11.68;4.10;;;;;;;;;;5011953;28;20038;-60
2021/04/08 05:50:12;;;;;;;12.20;4.32;;;;;;;;;;5012341;28;20463;-59
2021/04/08 05:52:38;;;;;;;17.48;4.85;;;;;;;;;;5010206;28;20151;-61
2021/04/08 05:55:04;;;;;;;12.07;4.67;;;;;;;;;;5012427;28;20396;-60
2021/04/08 05:57:30;;;;;;;14.32;4.40;;;;;;;;;;5011573;28;20030;-59
2021/04/08 05:59:55;;;;;;;16.40;4.37;;;;;;;;;;5012351;28;20046;-60
2021/04/08 06:02:21;;;;;;;12.90;4.97;;;;;;;;;;5010760;28;20060;-60
2021/04/08 06:04:46;;;;;;;7.53;3.97;;;;;;;;;;5010297;28;20390;-60
2021/04/08 06:07:11;;;;;;;5.97;3.27;;;;;;;;;;5011943;28;20129;-61
2021/04/08 06:09:37;;;;;;;13.33;3.30;;;;;;;;;;5011496;28;20441;-60
2021/04/08 06:12:02;;;;;;;9.20;3.40;;;;;;;;;;5010688;28;20129;-60
2021/04/08 06:14:28;;;;;;;16.87;3.67;;;;;;;;;;5011354;28;20014;-58
2021/04/08 06:16:55;;;;;;;9.93;3.55;;;;;;;;;;5010902;28;20069;-59
2021/04/08 06:19:20;;;;;;;10.65;4.47;;;;;;;;;;5011712;28;20072;-59
2021/04/08 06:21:45;;;;;;;9.07;3.63;;;;;;;;;;5009985;28;20423;-59
2021/04/08 06:24:11;;;;;;;8.47;3.70;;;;;;;;;;5026930;28;20454;-60
2021/04/08 06:26:36;;;;;;;12.50;4.67;;;;;;;;;;5017955;28;20038;-59
2021/04/08 06:29:02;;;;;;;7.50;3.83;;;;;;;;;;5021493;28;20022;-60
2021/04/08 06:31:27;;;;;;;6.90;3.50;;;;;;;;;;5031083;28;20033;-60
2021/04/08 06:33:53;;;;;;;7.37;3.23;;;;;;;;;;5030510;28;20270;-61
2021/04/08 06:36:19;;;;;;;12.67;3.80;;;;;;;;;;5030062;28;20048;-61
2021/04/08 06:38:45;;;;;;;11.57;4.15;;;;;;;;;;5029346;28;20128;-60
2021/04/08 06:41:10;;;;;;;8.50;3.17;;;;;;;;;;5031424;28;20152;-61
2021/04/08 06:43:37;;;;;;;8.87;2.87;;;;;;;;;;5028922;28;20037;-59
2021/04/08 06:46:03;;;;;;;9.68;3.30;;;;;;;;;;5031292;28;20029;-60
2021/04/08 06:48:36;;;;;;;8.48;3.42;;;;;;;;;;5031248;28;20036;-60
2021/04/08 06:51:02;;;;;;;12.88;3.80;;;;;;;;;;5030158;28;20038;-60
2021/04/08 06:53:27;;;;;;;8.48;3.38;;;;;;;;;;5031121;28;20025;-61
2021/04/08 06:55:53;;;;;;;9.07;2.93;;;;;;;;;;5030295;28;20029;-59
2021/04/08 06:58:19;;;;;;;8.77;3.45;;;;;;;;;;5031251;28;20060;-59
2021/04/08 07:00:44;;;;;;;9.17;3.70;;;;;;;;;;5029174;28;20107;-59
2021/04/08 07:03:09;;;;;;;11.07;3.23;;;;;;;;;;5023189;28;20309;-60
2021/04/08 07:05:35;;;;;;;11.57;3.40;;;;;;;;;;5028426;28;20065;-58
2021/04/08 07:08:00;;;;;;;8.47;3.10;;;;;;;;;;5015047;28;20111;-60
2021/04/08 07:10:25;;;;;;;9.20;3.60;;;;;;;;;;5015180;28;20053;-61
2021/04/08 07:12:54;;;;;;;12.80;3.27;;;;;;;;;;5029583;28;20034;-60
2021/04/08 07:15:21;;;;;;;6.47;3.20;;;;;;;;;;5013911;28;20037;-61
2021/04/08 07:17:46;;;;;;;10.70;4.13;;;;;;;;;;5014594;28;20508;-61
2021/04/08 07:20:12;;;;;;;8.20;3.13;;;;;;;;;;5032017;28;20034;-60
2021/04/08 07:22:38;;;;;;;11.20;3.17;;;;;;;;;;5033919;28;20045;-60
2021/04/08 07:25:12;;;;;;;9.13;3.10;;;;;;;;;;5034596;28;20130;-61
2021/04/08 07:27:37;;;;;;;7.13;4.15;;;;;;;;;;5049592;28;20394;-59
2021/04/08 07:30:03;;;;;;;9.27;3.70;;;;;;;;;;5033390;28;20143;-61
2021/04/08 07:32:28;;;;;;;8.83;3.10;;;;;;;;;;5034512;28;20029;-60
2021/04/08 07:34:55;;;;;;;7.73;3.83;;;;;;;;;;5033984;28;20025;-60
2021/04/08 07:37:30;;;;;;;5.15;3.28;;;;;;;;;;5034443;28;20080;-60
2021/04/08 07:39:57;;;;;;;6.93;2.60;;;;;;;;;;5033638;28;20037;-60
2021/04/08 07:42:22;;;;;;;;;;;;;;;;;;5034842;28;20034;-61
2021/04/08 07:44:52;;;;;;;7.27;2.40;;;;;;;;;;5033576;28;20055;-58
2021/04/08 07:47:24;;;;;;;6.65;2.60;;;;;;;;;;5033000;28;20034;-60
2021/04/08 07:49:51;;;;;;;7.78;2.50;;;;;;;;;;5033652;28;20044;-59
2021/04/08 07:52:17;;;;;;;6.07;2.33;;;;;;;;;;5032988;28;20129;-61
2021/04/08 07:54:42;;;;;;;;;;;;;;;;;;5049190;28;20132;-58
2021/04/08 07:57:08;;;;;;;10.90;2.60;;;;;;;;;;5033838;28;19984;-60
2021/04/08 07:59:33;;;;;;;8.07;2.70;;;;;;;;;;5032812;28;20033;-61
2021/04/08 08:02:03;;;;;;;9.27;2.40;;;;;;;;;;5033242;28;20054;-61
2021/04/08 08:04:29;;;;;;;3.78;1.98;;;;;;;;;;5032499;28;20426;-60
2021/04/08 08:06:54;;;;;;;5.85;2.25;;;;;;;;;;5033291;28;20040;-60
2021/04/08 08:09:21;;;;;;;7.90;2.40;;;;;;;;;;5034132;28;20048;-59
2021/04/08 08:11:48;;;;;;;5.73;2.83;;;;;;;;;;5033329;28;20040;-60
2021/04/08 08:14:14;;;;;;;8.32;2.80;;;;;;;;;;5033826;28;20159;-59
2021/04/08 08:16:39;;;;;;;12.90;3.22;;;;;;;;;;5033093;28;20083;-59
2021/04/08 08:19:05;;;;;;;7.93;3.00;;;;;;;;;;5033683;28;20041;-60
2021/04/08 08:21:35;;;;;;;8.17;3.50;;;;;;;;;;5033737;28;20417;-59
2021/04/08 08:24:05;;;;;;;8.52;3.65;;;;;;;;;;5032834;28;20489;-59
2021/04/08 08:26:38;;;;;;;7.97;3.40;;;;;;;;;;5032169;28;20393;-60
2021/04/08 08:29:16;;;;;;;12.48;4.00;;;;;;;;;;5032913;28;20034;-60
2021/04/08 08:31:41;;;;;;;13.35;3.05;;;;;;;;;;5033276;28;20116;-59
2021/04/08 08:34:09;;;;;;;8.30;2.90;;;;;;;;;;5048754;28;20125;-60
2021/04/08 08:36:35;;;;;;;5.57;3.22;;;;;;;;;;5033460;28;20025;-60
2021/04/08 08:39:02;;;;;;;9.18;4.45;;;;;;;;;;5032682;28;20515;-60
2021/04/08 08:41:28;;;;;;;10.13;3.80;;;;;;;;;;5031854;28;20037;-60
2021/04/08 08:43:55;;;;;;;6.20;3.47;;;;;;;;;;5031342;28;20038;-59
2021/04/08 08:46:20;;;;;;;;;;;;;;;;;;5033963;28;20045;-60
2021/04/08 08:48:45;;;;;;;7.77;3.43;;;;;;;;;;5032294;28;19931;-60
2021/04/08 08:51:11;;;;;;;7.87;4.07;;;;;;;;;;5033347;28;20044;-60
2021/04/08 08:53:36;;;;;;;11.20;4.27;;;;;;;;;;5031746;28;20018;-59
2021/04/08 08:56:02;;;;;;;9.33;4.03;;;;;;;;;;5032463;28;20033;-61
2021/04/08 08:58:27;;;;;;;8.83;4.90;;;;;;;;;;5032912;28;20049;-60
2021/04/08 09:00:53;;;;;;;8.83;3.77;;;;;;;;;;5031470;28;20373;-59
2021/04/08 09:03:19;;;;;;;9.07;3.40;;;;;;;;;;5032973;28;20029;-60
2021/04/08 09:05:46;;;;;;;8.65;3.88;;;;;;;;;;5047633;28;20040;-60
2021/04/08 09:08:13;;;;;;;13.13;4.22;;;;;;;;;;5032642;28;20065;-60
2021/04/08 09:10:41;;;;;;;7.22;3.22;;;;;;;;;;5032645;28;20052;-59
2021/04/08 09:13:06;;;;;;;12.15;4.30;;;;;;;;;;5031972;28;20033;-61
2021/04/08 09:15:32;;;;;;;6.47;3.77;;;;;;;;;;4998434;28;20057;-60
2021/04/08 09:17:58;;;;;;;8.73;3.63;;;;;;;;;;5014544;28;20014;-60
2021/04/08 09:20:24;;;;;;;8.43;4.20;;;;;;;;;;5017682;28;20052;-60
2021/04/08 09:23:07;;;;;;;10.93;3.65;;;;;;;;;;5022248;28;20029;-58
2021/04/08 09:25:34;;;;;;;9.20;3.95;;;;;;;;;;5021049;28;20402;-58
2021/04/08 09:28:01;;;;;;;7.10;3.40;;;;;;;;;;5021919;28;20047;-60
2021/04/08 09:33:18;;;;;;;10.95;3.83;;;;;;;;;;5014727;28;20033;-60
2021/04/08 09:35:44;;;;;;;9.57;3.58;;;;;;;;;;5032662;28;20056;-60
2021/04/08 09:38:09;;;;;;;10.57;4.10;;;;;;;;;;5015548;28;20125;-60
2021/04/08 09:40:41;;;;;;;14.00;4.73;;;;;;;;;;4993063;28;20043;-60
2021/04/08 09:43:08;;;;;;;7.45;4.60;;;;;;;;;;4992864;28;20038;-60
2021/04/08 09:45:33;;;;;;;;;;;;;;;;;;4993427;28;20027;-60
2021/04/08 09:48:11;;;;;;;6.33;4.10;;;;;;;;;;4992375;28;19905;-61
2021/04/08 09:50:42;;;;;;;8.18;4.05;;;;;;;;;;4993057;28;20035;-61
2021/04/08 09:53:08;;;;;;;8.82;4.43;;;;;;;;;;4990769;28;20336;-61
2021/04/08 09:55:33;;;;;;;9.63;4.55;;;;;;;;;;4993055;28;20026;-61
2021/04/08 09:58:05;;;;;;;15.23;5.03;;;;;;;;;;4991136;28;20041;-60
2021/04/08 10:00:31;;;;;;;8.90;4.05;;;;;;;;;;4992778;28;20034;-60
2021/04/08 10:02:57;;;;;;;12.07;4.18;;;;;;;;;;4992089;28;20050;-60
2021/04/08 10:05:22;;;;;;;8.53;3.57;;;;;;;;;;4993217;28;20061;-60
2021/04/08 10:07:55;;;;;;;12.10;4.27;;;;;;;;;;4992262;28;20049;-60
2021/04/08 10:10:40;;;;;;;8.73;4.30;;;;;;;;;;4991796;28;20267;-60
2021/04/08 10:13:18;;;;;;;7.82;4.00;;;;;;;;;;4991792;28;20061;-60
2021/04/08 10:15:44;;;;;;;5.85;4.13;;;;;;;;;;4993297;28;20038;-61
2021/04/08 10:18:16;;;;;;;11.75;5.45;;;;;;;;;;4992690;28;20037;-59
2021/04/08 10:20:42;;;;;;;10.98;3.83;;;;;;;;;;4992838;28;20042;-60
2021/04/08 10:23:08;;;;;;;11.07;4.10;;;;;;;;;;4991619;28;20141;-60
2021/04/08 10:25:34;;;;;;;9.82;3.97;;;;;;;;;;4992627;28;20552;-60
2021/04/08 10:28:00;;;;;;;14.15;4.38;;;;;;;;;;4992099;28;20451;-60
2021/04/08 10:30:25;;;;;;;8.93;4.05;;;;;;;;;;4992613;28;20368;-61
2021/04/08 10:32:53;;;;;;;7.97;4.25;;;;;;;;;;5007630;28;20035;-60
2021/04/08 10:35:23;;;;;;;8.30;4.65;;;;;;;;;;4992861;28;20510;-61
2021/04/08 10:38:02;;;;;;;9.13;4.82;;;;;;;;;;4991797;28;20121;-61
2021/04/08 10:40:27;;;;;;;6.55;4.00;;;;;;;;;;4991253;28;20047;-60
2021/04/08 10:43:05;;;;;;;8.05;4.35;;;;;;;;;;4992142;28;20509;-59
2021/04/08 10:45:31;;;;;;;9.48;4.10;;;;;;;;;;4992692;28;20031;-59
2021/04/08 10:47:57;;;;;;;9.43;4.83;;;;;;;;;;4991895;28;20359;-59
2021/04/08 10:50:24;;;;;;;8.35;4.65;;;;;;;;;;5007114;28;20027;-59
2021/04/08 10:52:49;;;;;;;11.52;4.70;;;;;;;;;;4991481;28;20038;-59
2021/04/08 10:55:15;;;;;;;9.80;5.47;;;;;;;;;;4991151;28;20086;-61
2021/04/08 10:57:41;;;;;;;11.57;5.22;;;;;;;;;;4992080;28;20256;-59
2021/04/08 11:00:09;;;;;;;7.90;5.00;;;;;;;;;;4991700;28;20038;-61
2021/04/08 11:02:39;;;;;;;11.60;5.72;;;;;;;;;;4992099;28;20051;-60
2021/04/08 11:05:06;;;;;;;10.75;5.13;;;;;;;;;;4991637;28;20027;-61
2021/04/08 11:07:36;;;;;;;8.73;5.05;;;;;;;;;;4991215;28;20391;-59
2021/04/08 11:10:11;;;;;;;9.40;5.28;;;;;;;;;;4991152;28;20034;-59
2021/04/08 11:12:36;;;;;;;11.98;5.35;;;;;;;;;;4991913;28;20125;-59
2021/04/08 11:15:03;;;;;;;11.20;5.20;;;;;;;;;;4991565;28;20470;-59
2021/04/08 11:17:29;;;;;;;8.75;5.00;;;;;;;;;;4992069;28;20030;-60
2021/04/08 11:19:55;;;;;;;11.23;5.45;;;;;;;;;;4994933;28;20037;-60
2021/04/08 11:22:21;;;;;;;12.80;6.25;;;;;;;;;;5004995;28;20026;-59
2021/04/08 11:24:47;;;;;;;10.57;5.40;;;;;;;;;;5006574;28;20037;-60
2021/04/08 11:27:13;;;;;;;10.82;5.18;;;;;;;;;;5003495;28;20077;-60
2021/04/08 11:29:39;;;;;;;13.93;5.53;;;;;;;;;;4992485;28;20030;-60
2021/04/08 11:32:09;;;;;;;14.52;6.05;;;;;;;;;;5006594;28;20118;-60
2021/04/08 11:34:48;;;;;;;10.77;5.45;;;;;;;;;;4993792;28;20035;-61
2021/04/08 11:37:16;;;;;;;10.18;5.68;;;;;;;;;;5001629;28;20034;-60
2021/04/08 11:39:42;;;;;;;14.27;6.25;;;;;;;;;;5015556;28;20042;-60
2021/04/08 11:42:14;;;;;;;11.57;7.03;;;;;;;;;;4995607;28;20035;-60
2021/04/08 11:44:40;;;;;;;11.30;6.35;;;;;;;;;;4997149;28;20034;-60
2021/04/08 11:47:12;;;;;;;9.93;6.03;;;;;;;;;;5011034;28;20439;-60
2021/04/08 11:49:47;;;;;;;16.10;5.95;;;;;;;;;;5013206;28;20115;-60
2021/04/08 11:52:13;;;;;;;10.85;5.40;;;;;;;;;;5014372;28;20454;-61
2021/04/08 11:54:59;;;;;;;10.65;5.60;;;;;;;;;;5015563;28;20061;-60
2021/04/08 11:57:24;;;;;;;14.15;6.97;;;;;;;;;;5013804;28;20049;-60
2021/04/08 11:59:50;;;;;;;15.40;6.70;;;;;;;;;;5013183;28;20050;-60
2021/04/08 12:02:28;;;;;;;12.53;6.27;;;;;;;;;;5014178;28;20132;-60
2021/04/08 12:04:54;;;;;;;21.58;6.30;;;;;;;;;;5013443;28;20079;-60
2021/04/08 12:07:19;;;;;;;17.73;7.00;;;;;;;;;;5028677;28;20125;-59
2021/04/08 12:09:45;;;;;;;14.43;5.90;;;;;;;;;;5029664;28;20045;-60
2021/04/08 12:12:12;;;;;;;12.65;5.22;;;;;;;;;;5029047;28;20363;-60
2021/04/08 12:14:57;;;;;;;12.80;6.37;;;;;;;;;;5014705;28;20108;-59
2021/04/08 12:17:23;;;;;;;10.60;5.07;;;;;;;;;;5013988;28;20037;-59
2021/04/08 12:19:49;;;;;;;12.85;5.13;;;;;;;;;;5012768;28;20069;-60
2021/04/08 12:22:15;;;;;;;8.80;5.60;;;;;;;;;;5013433;28;20034;-59
2021/04/08 12:24:41;;;;;;;13.82;5.72;;;;;;;;;;5013953;28;20037;-59
2021/04/08 12:27:16;;;;;;;13.43;5.65;;;;;;;;;;5013716;28;20033;-59
2021/04/08 12:29:41;;;;;;;7.60;5.28;;;;;;;;;;5014070;28;20038;-60
2021/04/08 12:32:06;;;;;;;10.90;5.70;;;;;;;;;;5013731;28;20463;-59
2021/04/08 12:34:32;;;;;;;11.50;5.70;;;;;;;;;;5014232;28;20030;-61
2021/04/08 12:36:58;;;;;;;10.20;6.40;;;;;;;;;;5028692;28;20044;-60
2021/04/08 12:39:24;;;;;;;11.93;5.57;;;;;;;;;;5013056;28;20380;-60
2021/04/08 12:41:49;;;;;;;15.10;6.50;;;;;;;;;;5013953;28;20038;-60
2021/04/08 12:44:14;;;;;;;8.83;5.53;;;;;;;;;;5013381;28;20038;-59
2021/04/08 12:46:40;;;;;;;11.17;6.17;;;;;;;;;;5013723;28;20045;-60
2021/04/08 12:49:05;;;;;;;7.83;5.63;;;;;;;;;;5013177;28;20026;-59
2021/04/08 12:51:31;;;;;;;16.13;6.30;;;;;;;;;;5013538;28;20034;-60
2021/04/08 12:53:56;;;;;;;14.90;6.23;;;;;;;;;;5012131;28;20052;-60
2021/04/08 12:56:23;;;;;;;8.23;6.13;;;;;;;;;;5013173;28;20026;-60
2021/04/08 12:58:48;;;;;;;13.17;5.97;;;;;;;;;;5028484;28;20088;-60
2021/04/08 13:01:14;;;;;;;11.17;6.57;;;;;;;;;;5027929;28;20751;-60
2021/04/08 13:03:39;;;;;;;10.57;6.77;;;;;;;;;;5012242;28;20050;-60
2021/04/08 13:06:04;;;;;;;9.10;6.07;;;;;;;;;;5012940;28;20113;-59
2021/04/08 13:08:30;;;;;;;9.05;6.05;;;;;;;;;;5012611;28;20467;-59
2021/04/08 13:10:55;;;;;;;10.50;6.87;;;;;;;;;;5013386;28;20442;-60
2021/04/08 13:13:21;;;;;;;11.23;6.13;;;;;;;;;;5011182;28;20306;-60
2021/04/08 13:15:46;;;;;;;11.60;5.70;;;;;;;;;;5013418;28;20087;-60
2021/04/08 13:18:11;;;;;;;11.97;6.67;;;;;;;;;;5012782;28;20036;-60
2021/04/08 13:20:37;;;;;;;9.17;6.30;;;;;;;;;;5012602;28;20117;-60
2021/04/08 13:23:03;;;;;;;14.00;6.40;;;;;;;;;;5012604;28;20351;-59
2021/04/08 13:25:30;;;;;;;11.30;5.80;;;;;;;;;;5012644;28;20041;-59
2021/04/08 13:27:56;;;;;;;7.40;5.63;;;;;;;;;;5013113;28;20258;-59
2021/04/08 13:30:23;;;;;;;10.88;6.68;;;;;;;;;;5012351;28;20623;-59
2021/04/08 13:32:48;;;;;;;7.63;5.82;;;;;;;;;;5012885;28;20026;-59
2021/04/08 13:35:14;;;;;;;10.43;6.13;;;;;;;;;;5011505;28;20033;-59
2021/04/08 13:37:39;;;;;;;9.25;6.10;;;;;;;;;;5012629;28;20029;-59
2021/04/08 13:40:06;;;;;;;14.75;6.95;;;;;;;;;;5012276;28;20458;-60
2021/04/08 13:42:31;;;;;;;10.13;6.18;;;;;;;;;;5011839;28;20508;-59
2021/04/08 13:44:57;;;;;;;12.73;6.80;;;;;;;;;;5027954;28;20034;-60
2021/04/08 13:47:23;;;;;;;11.20;6.57;;;;;;;;;;5011868;28;20433;-60
2021/04/08 13:49:48;;;;;;;12.73;6.87;;;;;;;;;;5012459;28;20533;-60
2021/04/08 13:52:13;;;;;;;10.83;7.00;;;;;;;;;;5012208;28;20041;-57
2021/04/08 13:54:39;;;;;;;13.17;7.83;;;;;;;;;;5027234;28;20042;-60
2021/04/08 13:57:04;;;;;;;15.97;9.33;;;;;;;;;;5012765;28;20462;-60
2021/04/08 13:59:30;;;;;;;11.90;7.90;;;;;;;;;;5010867;28;20113;-60
2021/04/08 14:01:56;;;;;;;13.43;7.33;;;;;;;;;;5010957;28;20524;-59
2021/04/08 14:04:23;;;;;;;9.53;7.40;;;;;;;;;;5012296;28;20319;-59
2021/04/08 14:06:48;;;;;;;12.98;7.35;;;;;;;;;;5012223;28;20033;-60
2021/04/08 14:09:13;;;;;;;16.53;8.57;;;;;;;;;;5010242;28;20040;-58
2021/04/08 14:11:41;;;;;;;11.98;8.65;;;;;;;;;;5012723;28;20304;-60
2021/04/08 14:14:06;;;;;;;14.70;7.63;;;;;;;;;;5012339;28;20046;-60
2021/04/08 14:16:32;;;;;;;19.23;7.83;;;;;;;;;;5011605;28;20288;-59
2021/04/08 14:18:57;;;;;;;13.60;8.13;;;;;;;;;;5011079;28;20105;-59
2021/04/08 14:21:22;;;;;;;19.23;8.07;;;;;;;;;;5011215;28;20154;-59
2021/04/08 14:23:49;;;;;;;10.43;8.00;;;;;;;;;;5010457;28;20743;-59
2021/04/08 14:26:14;;;;;;;12.80;9.20;;;;;;;;;;5011729;28;20568;-59
2021/04/08 14:28:40;;;;;;;13.10;8.68;;;;;;;;;;5011978;28;20052;-59
2021/04/08 14:31:06;;;;;;;11.95;8.50;;;;;;;;;;5010933;28;20490;-59
2021/04/08 14:33:31;;;;;;;11.57;8.50;;;;;;;;;;5011458;28;20465;-60
2021/04/08 14:35:56;;;;;;;16.37;9.47;;;;;;;;;;5011539;28;20038;-60
2021/04/08 14:38:22;;;;;;;12.77;9.67;;;;;;;;;;5026322;28;20030;-59